Billings, MT

9:22 AM MDT on August 27, 2014 (GMT -0600)
E of Blue Basket (Heights) | Change Station
CLOSE
Current Station
Personal Weather Station
Location: Billings, MT
Elevation: 3159 ft
Nearby Weather Stations

Elev 3159 ft 45.84 °N, 108.45 °W | Updated 2 minutes ago

Partly Cloudy
Partly Cloudy
61.6 °F
Feels Like 61.6 °F
N
0.2
Wind Variable Wind from South
Gusts 0.2 mph

Today
High -- | Low -- °F
--% Chance of Precip.
Yesterday
High -- | Low -- °F
Precip. -- in
6:28 AM 8:01 PM
Waxing Crescent, 4% visible
Pressure 30.05 in
Visibility 10.0 miles
Clouds Few 20000 ft
Dew Point 53 °F
Humidity 73%
Rainfall 0.00 in
Snow Depth Not available.
UV 2 out of 12
Pollen 8.50 out of 12
Air Quality Not available.
Flu Activity Not available.
METAR KBIL 271453Z 22009KT 10SM FEW200 16/10 A3012 RMK AO2 SLP176 T01560100 50004

More Conditions Fewer Conditions

Pressure 30.05 in
Visibility 10.0 miles
Clouds Few 20000 ft
Dew Point 53 °F
Humidity 73%
Rainfall 0.00 in
Snow Depth Not available.
UV 2 out of 12
Pollen 8.50 out of 12
Air Quality Not available.
Flu Activity Not available.
METAR KBIL 271453Z 22009KT 10SM FEW200 16/10 A3012 RMK AO2 SLP176 T01560100 50004

More Conditions Fewer Conditions

10-Day Weather Forecast

Almanac

Astronomy

Aug. 27, 2014 Rise Set
Actual Time 6:28 AM MDT 8:01 PM MDT
Civil Twilight 5:57 AM MDT 8:32 PM MDT
Nautical Twilight 5:19 AM MDT 9:09 PM MDT
Astronomical Twilight 4:38 AM MDT 9:50 PM MDT
Moon 8:36 AM MDT 8:45 PM MDT
Length of Visible Light 14h 34m
Length of Day
13h 32m
Tomorrow will be 3m 4s shorter.
Waxing Crescent, 4% of the Moon is Illuminated
Today
Waxing Crescent
Sep 2
First Quarter
Sep 8
Full
Sep 15
Last Quarter
Sep 24
New

Today's Extremes

State Highs State Lows

Community

WunderPhotos

Upload Photos

1,747,708 photos uploaded!

Nearby

Snow Depth

Station Depth Elevation
Cole Creek 1 in 7850 ft
Placer Basin 0 in 8830 ft
Crystal Lake 0 in 6050 ft
White Mill 2 in 8700 ft
Northeast Entrance 0 in 7350 ft

Earthquake Activity

City Distance Mag. Time & Date
No recent earthquake activity has been reported nearby.
Minimum magnitude displayed is 2.5.

Coastal Water Temperatures

Place Temperature
No Stations Reporting

Nearby Weather Stations